Alto Taquari, Brazil
Current Conditions -  °F | °C
As of 1:00 AM on Saturday 25 Oct 2014 (Local Time) from SBCG Reporting Station
Broken Clouds Broken Clouds  
Wind Chill: 68°   Ceiling: 10000
Heat Index: 68°   Visibility: 6mi
Dew Point: 66°   Wind: 2mph
Humidity: 94%   Direction: 270°W
Pressure: 29.94"   Gusts: NA
Location:  17.83°S, 53.28°W
Report Text: SBCG 250400Z 27002KT 9999 FEW030 BKN100 20/19 Q1014
Loading
Personal Weather Stations






























Interactive Weather Map
Tropical Storm Tracking
New forecast layout! Learn more

10-Day Weather Forecast

Advertisements
Track Severe Weather on mobile